createdAt,value
2023-02-23T00:00:38.292Z,975.42
2023-02-23T00:01:38.262Z,975.47
2023-02-23T00:02:38.258Z,975.49
2023-02-23T00:03:38.315Z,975.51
2023-02-23T00:04:38.264Z,975.45
2023-02-23T00:05:38.226Z,975.50
2023-02-23T00:06:38.284Z,975.47
2023-02-23T00:07:38.201Z,975.48
2023-02-23T00:08:38.190Z,975.43
2023-02-23T00:09:38.169Z,975.46
2023-02-23T00:10:38.159Z,975.47
2023-02-23T00:11:38.131Z,975.49
2023-02-23T00:12:38.132Z,975.49
2023-02-23T00:13:38.123Z,975.47
2023-02-23T00:14:38.364Z,975.48
2023-02-23T00:15:38.100Z,975.48
2023-02-23T00:16:38.114Z,975.45
2023-02-23T00:17:38.054Z,975.43
2023-02-23T00:18:38.067Z,975.43
2023-02-23T00:19:38.055Z,975.45
2023-02-23T00:20:38.032Z,975.45
2023-02-23T00:21:38.003Z,975.48
2023-02-23T00:22:37.985Z,975.45
2023-02-23T00:23:38.062Z,975.49
2023-02-23T00:24:37.995Z,975.48
2023-02-23T00:25:37.955Z,975.47
2023-02-23T00:26:37.952Z,975.51
2023-02-23T00:27:37.915Z,975.50
2023-02-23T00:28:37.906Z,975.42
2023-02-23T00:29:37.897Z,975.42
2023-02-23T00:30:37.923Z,975.35
2023-02-23T00:31:37.938Z,975.38
2023-02-23T00:32:38.074Z,975.32
2023-02-23T00:33:37.827Z,975.39
2023-02-23T00:34:37.863Z,975.39
2023-02-23T00:35:37.829Z,975.39
2023-02-23T00:36:37.789Z,975.37
2023-02-23T00:37:37.804Z,975.42
2023-02-23T00:38:37.783Z,975.43
2023-02-23T00:39:37.780Z,975.45
2023-02-23T00:40:37.743Z,975.39
2023-02-23T00:41:37.745Z,975.44
2023-02-23T00:42:37.714Z,975.42
2023-02-23T00:43:37.722Z,975.47
2023-02-23T00:44:37.712Z,975.38
2023-02-23T00:45:37.686Z,975.46
2023-02-23T00:46:37.672Z,975.37
2023-02-23T00:47:37.662Z,975.35
2023-02-23T00:48:37.678Z,975.32
2023-02-23T00:49:37.643Z,975.34
2023-02-23T00:50:37.626Z,975.27
2023-02-23T00:51:37.604Z,975.30
2023-02-23T00:52:37.620Z,975.34
2023-02-23T00:53:37.577Z,975.38
2023-02-23T00:54:37.573Z,975.33
2023-02-23T00:55:37.568Z,975.39
2023-02-23T00:56:37.544Z,975.34
2023-02-23T00:57:37.535Z,975.40
2023-02-23T00:58:37.528Z,975.44
2023-02-23T00:59:37.543Z,975.42
2023-02-23T01:00:37.476Z,975.44
2023-02-23T01:01:37.552Z,975.42
2023-02-23T01:02:37.484Z,975.44
2023-02-23T01:03:37.457Z,975.42
2023-02-23T01:04:37.430Z,975.42
2023-02-23T01:05:37.426Z,975.51
2023-02-23T01:06:37.401Z,975.46
2023-02-23T01:07:37.406Z,975.49
2023-02-23T01:08:37.380Z,975.50
2023-02-23T01:09:37.383Z,975.48
2023-02-23T01:10:37.357Z,975.51
2023-02-23T01:11:37.329Z,975.49
2023-02-23T01:12:37.327Z,975.53
2023-02-23T01:13:37.312Z,975.53
2023-02-23T01:14:37.292Z,975.52
2023-02-23T01:15:37.297Z,975.51
2023-02-23T01:16:37.261Z,975.51
2023-02-23T01:17:37.250Z,975.48
2023-02-23T01:18:37.230Z,975.51
2023-02-23T01:19:37.230Z,975.52
2023-02-23T01:20:37.219Z,975.48
2023-02-23T01:21:37.204Z,975.47
2023-02-23T01:22:37.179Z,975.51
2023-02-23T01:23:37.180Z,975.50
2023-02-23T01:24:37.173Z,975.47
2023-02-23T01:25:37.209Z,975.47
2023-02-23T01:26:37.130Z,975.45
2023-02-23T01:27:37.121Z,975.46
2023-02-23T01:28:37.142Z,975.50
2023-02-23T01:29:37.081Z,975.39
2023-02-23T01:30:37.236Z,975.40
2023-02-23T01:31:37.252Z,975.40
2023-02-23T01:32:37.088Z,975.41
2023-02-23T01:33:37.035Z,975.45
2023-02-23T01:34:45.539Z,975.48
2023-02-23T01:35:37.024Z,975.45
2023-02-23T01:36:36.993Z,975.45
2023-02-23T01:37:36.981Z,975.45
2023-02-23T01:38:36.985Z,975.45
2023-02-23T01:39:36.955Z,975.44
2023-02-23T01:40:36.950Z,975.48
2023-02-23T01:41:36.983Z,975.44
2023-02-23T01:42:36.942Z,975.44
2023-02-23T01:43:36.894Z,975.42
2023-02-23T01:44:36.902Z,975.45
2023-02-23T01:45:36.896Z,975.44
2023-02-23T01:46:36.850Z,975.46
2023-02-23T01:47:36.862Z,975.49
2023-02-23T01:48:36.847Z,975.47
2023-02-23T01:49:36.834Z,975.44
2023-02-23T01:50:36.819Z,975.46
2023-02-23T01:51:36.811Z,975.49
2023-02-23T01:52:36.782Z,975.40
2023-02-23T01:53:36.771Z,975.47
2023-02-23T01:54:36.762Z,975.36
2023-02-23T01:55:36.772Z,975.43
2023-02-23T01:56:36.723Z,975.41
2023-02-23T01:57:36.733Z,975.39
2023-02-23T01:58:36.713Z,975.33
2023-02-23T01:59:36.711Z,975.38
2023-02-23T02:00:36.724Z,975.37
2023-02-23T02:01:36.677Z,975.36
2023-02-23T02:02:36.657Z,975.40
2023-02-23T02:03:36.643Z,975.36
2023-02-23T02:04:36.637Z,975.32
2023-02-23T02:05:36.637Z,975.40
2023-02-23T02:06:36.623Z,975.43
2023-02-23T02:07:36.607Z,975.39
2023-02-23T02:08:36.572Z,975.42
2023-02-23T02:09:36.578Z,975.41
2023-02-23T02:10:36.567Z,975.37
2023-02-23T02:11:36.587Z,975.40
2023-02-23T02:12:36.522Z,975.40
2023-02-23T02:13:36.514Z,975.41
2023-02-23T02:14:36.493Z,975.42
2023-02-23T02:15:36.495Z,975.36
2023-02-23T02:16:36.473Z,975.42
2023-02-23T02:17:36.464Z,975.44
2023-02-23T02:18:36.435Z,975.42
2023-02-23T02:19:36.434Z,975.41
2023-02-23T02:20:36.454Z,975.38
2023-02-23T02:21:36.414Z,975.45
2023-02-23T02:22:36.383Z,975.38
2023-02-23T02:23:36.379Z,975.40
2023-02-23T02:24:36.420Z,975.42
2023-02-23T02:25:36.377Z,975.38
2023-02-23T02:26:36.361Z,975.42
2023-02-23T02:27:36.336Z,975.36
2023-02-23T02:28:36.328Z,975.45
2023-02-23T02:29:36.307Z,975.39
2023-02-23T02:30:36.382Z,975.39
2023-02-23T02:31:36.395Z,975.39
2023-02-23T02:32:36.261Z,975.39
2023-02-23T02:33:36.277Z,975.36
2023-02-23T02:34:36.251Z,975.37
2023-02-23T02:35:36.235Z,975.32
2023-02-23T02:36:36.211Z,975.36
2023-02-23T02:37:36.219Z,975.42
2023-02-23T02:38:36.200Z,975.37
2023-02-23T02:39:36.214Z,975.41
2023-02-23T02:40:36.182Z,975.36
2023-02-23T02:41:36.164Z,975.39
2023-02-23T02:42:36.134Z,975.33
2023-02-23T02:43:36.138Z,975.32
2023-02-23T02:44:36.143Z,975.34
2023-02-23T02:45:36.136Z,975.35
2023-02-23T02:46:36.096Z,975.34
2023-02-23T02:47:36.090Z,975.30
2023-02-23T02:48:36.068Z,975.34
2023-02-23T02:49:36.062Z,975.33
2023-02-23T02:50:36.061Z,975.29
2023-02-23T02:51:36.052Z,975.32
2023-02-23T02:52:36.026Z,975.34
2023-02-23T02:53:36.010Z,975.31
2023-02-23T02:54:35.992Z,975.28
2023-02-23T02:55:36.003Z,975.33
2023-02-23T02:56:35.970Z,975.34
2023-02-23T02:57:35.963Z,975.30
2023-02-23T02:58:35.952Z,975.32
2023-02-23T02:59:35.960Z,975.34
2023-02-23T03:00:35.949Z,975.36
2023-02-23T03:01:35.988Z,975.31
2023-02-23T03:02:35.915Z,975.32
2023-02-23T03:03:35.884Z,975.37
2023-02-23T03:04:35.901Z,975.34
2023-02-23T03:05:35.875Z,975.35
2023-02-23T03:06:35.847Z,975.34
2023-02-23T03:07:35.842Z,975.35
2023-02-23T03:08:35.827Z,975.31
2023-02-23T03:09:35.813Z,975.39
2023-02-23T03:10:35.824Z,975.37
2023-02-23T03:11:35.802Z,975.37
2023-02-23T03:12:35.773Z,975.39
2023-02-23T03:13:35.763Z,975.39
2023-02-23T03:14:35.777Z,975.38
2023-02-23T03:15:35.746Z,975.40
2023-02-23T03:16:35.717Z,975.40
2023-02-23T03:17:38.318Z,975.38
2023-02-23T03:18:35.719Z,975.43
2023-02-23T03:19:35.675Z,975.40
2023-02-23T03:20:35.665Z,975.36
2023-02-23T03:21:35.677Z,975.36
2023-02-23T03:22:35.652Z,975.33
2023-02-23T03:23:35.639Z,975.41
2023-02-23T03:24:35.621Z,975.39
2023-02-23T03:25:35.639Z,975.41
2023-02-23T03:26:35.598Z,975.42
2023-02-23T03:27:35.577Z,975.41
2023-02-23T03:28:35.557Z,975.47
2023-02-23T03:29:35.581Z,975.42
2023-02-23T03:30:35.606Z,975.41
2023-02-23T03:31:35.597Z,975.42
2023-02-23T03:32:35.602Z,975.43
2023-02-23T03:33:35.513Z,975.50
2023-02-23T03:34:35.478Z,975.46
2023-02-23T03:35:35.484Z,975.43
2023-02-23T03:36:35.457Z,975.40
2023-02-23T03:37:35.461Z,975.43
2023-02-23T03:38:35.441Z,975.43
2023-02-23T03:39:35.441Z,975.46
2023-02-23T03:40:35.431Z,975.48
2023-02-23T03:41:35.398Z,975.47
2023-02-23T03:42:35.378Z,975.44
2023-02-23T03:43:35.379Z,975.45
2023-02-23T03:44:35.346Z,975.47
2023-02-23T03:45:35.372Z,975.46
2023-02-23T03:46:35.340Z,975.47
2023-02-23T03:47:35.318Z,975.48
2023-02-23T03:48:35.299Z,975.40
2023-02-23T03:49:35.467Z,975.43
2023-02-23T04:03:01.716Z,975.45
2023-02-23T04:04:01.704Z,975.45
2023-02-23T04:05:01.676Z,975.45
2023-02-23T04:06:01.691Z,975.43
2023-02-23T04:07:01.670Z,975.45
2023-02-23T04:08:01.652Z,975.50
2023-02-23T04:09:01.636Z,975.44
2023-02-23T04:10:01.644Z,975.49
2023-02-23T04:11:01.614Z,975.43
2023-02-23T04:12:01.605Z,975.45
2023-02-23T04:13:01.584Z,975.49
2023-02-23T04:14:01.576Z,975.50
2023-02-23T04:15:01.546Z,975.46
2023-02-23T04:16:01.572Z,975.48
2023-02-23T04:17:01.533Z,975.46
2023-02-23T04:18:01.513Z,975.53
2023-02-23T04:19:01.508Z,975.48
2023-02-23T04:20:01.505Z,975.55
2023-02-23T04:21:01.579Z,975.52
2023-02-23T04:22:01.470Z,975.52
2023-02-23T04:23:01.444Z,975.54
2023-02-23T04:24:01.457Z,975.62
2023-02-23T04:25:01.420Z,975.54
2023-02-23T04:26:01.434Z,975.60
2023-02-23T04:27:01.400Z,975.58
2023-02-23T04:28:01.384Z,975.56
2023-02-23T04:29:01.376Z,975.58
2023-02-23T04:30:01.359Z,975.59
2023-02-23T04:31:01.434Z,975.56
2023-02-23T04:32:01.376Z,975.56
2023-02-23T04:33:01.331Z,975.52
2023-02-23T04:34:01.311Z,975.55
2023-02-23T04:35:01.302Z,975.60
2023-02-23T04:36:01.381Z,975.56
2023-02-23T04:37:01.288Z,975.58
2023-02-23T04:38:01.275Z,975.58
2023-02-23T04:39:01.266Z,975.56
2023-02-23T04:40:01.244Z,975.63
2023-02-23T04:41:01.242Z,975.60
2023-02-23T04:42:01.200Z,975.67
2023-02-23T04:43:01.211Z,975.62
2023-02-23T04:44:01.218Z,975.57
2023-02-23T04:45:01.176Z,975.63
2023-02-23T04:46:01.235Z,975.54
2023-02-23T04:47:01.166Z,975.61
2023-02-23T04:48:01.202Z,975.63
2023-02-23T04:49:01.141Z,975.52
2023-02-23T04:50:01.183Z,975.63
2023-02-23T04:51:01.102Z,975.63
2023-02-23T04:52:01.072Z,975.57
2023-02-23T04:53:01.071Z,975.65
2023-02-23T04:54:01.082Z,975.56
2023-02-23T04:55:01.058Z,975.61
2023-02-23T04:56:01.026Z,975.57
2023-02-23T04:57:01.025Z,975.59
2023-02-23T04:58:01.041Z,975.57
2023-02-23T04:59:00.993Z,975.64
2023-02-23T05:00:00.965Z,975.65
2023-02-23T05:01:01.020Z,975.62
2023-02-23T05:02:00.960Z,975.67
2023-02-23T05:03:00.952Z,975.70
2023-02-23T05:04:00.948Z,975.71
2023-02-23T05:05:00.940Z,975.74
2023-02-23T05:06:00.926Z,975.72
2023-02-23T05:07:00.904Z,975.72
2023-02-23T05:08:00.864Z,975.72
2023-02-23T05:09:00.896Z,975.64
2023-02-23T05:10:00.844Z,975.73
2023-02-23T05:11:00.853Z,975.67
2023-02-23T05:12:00.814Z,975.68
2023-02-23T05:13:00.813Z,975.66
2023-02-23T05:14:00.793Z,975.71
2023-02-23T05:15:00.809Z,975.68
2023-02-23T05:16:00.833Z,975.66
2023-02-23T05:17:00.786Z,975.73
2023-02-23T05:18:00.742Z,975.72
2023-02-23T05:19:00.725Z,975.67
2023-02-23T05:20:00.717Z,975.67
2023-02-23T05:21:00.721Z,975.72
2023-02-23T05:22:00.688Z,975.69
2023-02-23T05:23:00.664Z,975.69
2023-02-23T05:24:00.659Z,975.65
2023-02-23T05:25:00.656Z,975.68
2023-02-23T05:26:00.675Z,975.64
2023-02-23T05:27:00.645Z,975.63
2023-02-23T05:28:00.609Z,975.70
2023-02-23T05:29:00.609Z,975.64
2023-02-23T05:30:00.594Z,975.69
2023-02-23T05:31:00.752Z,975.71
2023-02-23T05:32:00.731Z,975.70
2023-02-23T05:33:00.540Z,975.72
2023-02-23T05:34:00.520Z,975.74
2023-02-23T05:35:00.524Z,975.71
2023-02-23T05:36:00.504Z,975.75
2023-02-23T05:37:00.514Z,975.76
2023-02-23T05:38:00.464Z,975.69
2023-02-23T05:39:00.484Z,975.72
2023-02-23T05:40:00.446Z,975.71
2023-02-23T05:41:00.462Z,975.70
2023-02-23T05:42:00.412Z,975.66
2023-02-23T05:43:00.447Z,975.75
2023-02-23T05:44:00.402Z,975.70
2023-02-23T05:45:00.392Z,975.70
2023-02-23T05:46:00.420Z,975.68
2023-02-23T05:47:00.367Z,975.70
2023-02-23T05:48:00.351Z,975.75
2023-02-23T05:49:00.336Z,975.67
2023-02-23T05:50:00.339Z,975.69
2023-02-23T05:51:00.322Z,975.70
2023-02-23T05:52:00.292Z,975.71
2023-02-23T05:53:00.286Z,975.68
2023-02-23T05:54:00.270Z,975.66
2023-02-23T05:55:00.277Z,975.65
2023-02-23T05:56:00.274Z,975.67
2023-02-23T05:57:01.785Z,975.67
2023-02-23T05:58:00.221Z,975.70
2023-02-23T05:59:00.208Z,975.70
2023-02-23T06:00:00.184Z,975.68
2023-02-23T06:01:00.195Z,975.72
2023-02-23T06:02:00.165Z,975.71
2023-02-23T06:03:00.156Z,975.72
2023-02-23T06:04:00.223Z,975.69
2023-02-23T06:05:00.145Z,975.74
2023-02-23T06:06:00.157Z,975.75
2023-02-23T06:07:00.125Z,975.78
2023-02-23T06:08:00.116Z,975.76
2023-02-23T06:09:00.112Z,975.76
2023-02-23T06:10:00.099Z,975.77
2023-02-23T06:11:00.101Z,975.81
2023-02-23T06:12:00.054Z,975.84
2023-02-23T06:13:00.035Z,975.77
2023-02-23T06:14:00.022Z,975.78
2023-02-23T06:15:00.021Z,975.80
2023-02-23T06:16:00.017Z,975.82
2023-02-23T06:17:00.104Z,975.80
2023-02-23T06:17:59.972Z,975.80
2023-02-23T06:18:59.948Z,975.87
2023-02-23T06:19:59.946Z,975.86
2023-02-23T06:20:59.938Z,975.87
2023-02-23T06:21:59.912Z,975.83
2023-02-23T06:22:59.893Z,975.94
2023-02-23T06:23:59.900Z,975.89
2023-02-23T06:24:59.866Z,975.91
2023-02-23T06:25:59.860Z,975.92
2023-02-23T06:26:59.847Z,975.97
2023-02-23T06:27:59.839Z,975.95
2023-02-23T06:28:59.833Z,975.98
2023-02-23T06:29:59.820Z,975.94
2023-02-23T06:30:59.932Z,976.01
2023-02-23T06:32:00.998Z,975.94
2023-02-23T06:32:59.785Z,975.97
2023-02-23T06:33:59.778Z,975.94
2023-02-23T06:34:59.809Z,975.99
2023-02-23T06:35:59.828Z,976.04
2023-02-23T06:36:59.728Z,976.05
2023-02-23T06:37:59.689Z,976.01
2023-02-23T06:38:59.696Z,975.96
2023-02-23T06:39:59.678Z,976.00
2023-02-23T06:40:59.681Z,976.04
2023-02-23T06:41:59.657Z,976.00
2023-02-23T06:42:59.649Z,976.15
2023-02-23T06:43:59.633Z,976.17
2023-02-23T06:44:59.622Z,976.12
2023-02-23T06:45:59.677Z,976.09
2023-02-23T06:46:59.589Z,976.08
2023-02-23T06:47:59.572Z,976.13
2023-02-23T06:48:59.561Z,976.15
2023-02-23T06:49:59.568Z,976.14
2023-02-23T06:50:59.551Z,976.16
2023-02-23T06:51:59.521Z,976.14
2023-02-23T06:52:59.537Z,976.14
2023-02-23T06:53:59.507Z,976.19
2023-02-23T06:54:59.488Z,976.23
2023-02-23T06:55:59.484Z,976.22
2023-02-23T06:56:59.456Z,976.20
2023-02-23T06:57:59.440Z,976.22
2023-02-23T06:58:59.440Z,976.35
2023-02-23T06:59:59.420Z,976.23
2023-02-23T07:00:59.467Z,976.26
2023-02-23T07:01:59.429Z,976.28
2023-02-23T07:02:59.392Z,976.24
2023-02-23T07:03:59.523Z,976.32
2023-02-23T07:04:59.415Z,976.30
2023-02-23T07:05:59.344Z,976.23
2023-02-23T07:06:59.329Z,976.29
2023-02-23T07:07:59.310Z,976.28
2023-02-23T07:08:59.303Z,976.33
2023-02-23T07:09:59.287Z,976.33
2023-02-23T07:10:59.290Z,976.35
2023-02-23T07:11:59.278Z,976.38
2023-02-23T07:12:59.257Z,976.34
2023-02-23T07:13:59.253Z,976.39
2023-02-23T07:14:59.240Z,976.40
2023-02-23T07:15:59.256Z,976.34
2023-02-23T07:16:59.211Z,976.39
2023-02-23T07:17:59.202Z,976.43
2023-02-23T07:18:59.186Z,976.39
2023-02-23T07:19:59.157Z,976.42
2023-02-23T07:20:59.171Z,976.39
2023-02-23T07:21:59.127Z,976.42
2023-02-23T07:22:59.127Z,976.49
2023-02-23T07:23:59.116Z,976.50
2023-02-23T07:24:59.108Z,976.42
2023-02-23T07:25:59.086Z,976.46
2023-02-23T07:26:59.084Z,976.39
2023-02-23T07:27:59.133Z,976.40
2023-02-23T07:28:59.054Z,976.46
2023-02-23T07:29:59.038Z,976.43
2023-02-23T07:30:59.068Z,976.45
2023-02-23T07:31:59.126Z,976.45
2023-02-23T07:32:59.015Z,976.43
2023-02-23T07:33:58.999Z,976.47
2023-02-23T07:34:58.971Z,976.41
2023-02-23T07:35:58.968Z,976.35
2023-02-23T07:36:58.948Z,976.40
2023-02-23T07:37:58.939Z,976.41
2023-02-23T07:38:58.936Z,976.42
2023-02-23T07:40:01.037Z,976.33
2023-02-23T07:40:58.912Z,976.40
2023-02-23T07:41:58.911Z,976.39
2023-02-23T07:42:58.866Z,976.33
2023-02-23T07:43:58.872Z,976.44
2023-02-23T07:44:58.866Z,976.42
2023-02-23T07:45:58.878Z,976.38
2023-02-23T07:46:58.844Z,976.41
2023-02-23T07:47:58.803Z,976.44
2023-02-23T07:48:58.811Z,976.44
2023-02-23T07:49:58.779Z,976.39
2023-02-23T07:50:58.806Z,976.34
2023-02-23T07:51:58.776Z,976.48
2023-02-23T07:52:58.751Z,976.39
2023-02-23T07:53:58.736Z,976.40
2023-02-23T07:54:58.735Z,976.40
2023-02-23T07:55:58.730Z,976.40
2023-02-23T07:56:58.709Z,976.43
2023-02-23T07:57:58.691Z,976.43
2023-02-23T07:58:58.696Z,976.42
2023-02-23T07:59:58.658Z,976.42
2023-02-23T08:00:58.713Z,976.46
2023-02-23T08:01:58.654Z,976.38
2023-02-23T08:02:58.608Z,976.43
2023-02-23T08:03:58.665Z,976.43
2023-02-23T08:04:58.594Z,976.42
2023-02-23T08:05:58.589Z,976.45
2023-02-23T08:06:58.581Z,976.46
2023-02-23T08:07:58.538Z,976.39
2023-02-23T08:08:58.550Z,976.41
2023-02-23T08:09:58.539Z,976.41
2023-02-23T08:10:58.512Z,976.47
2023-02-23T08:11:58.503Z,976.42
2023-02-23T08:12:58.560Z,976.51
2023-02-23T08:13:58.468Z,976.41
2023-02-23T08:14:58.463Z,976.41
2023-02-23T08:15:58.453Z,976.43
2023-02-23T08:16:58.469Z,976.46
2023-02-23T08:17:58.415Z,976.43
2023-02-23T08:18:58.415Z,976.47
2023-02-23T08:19:58.388Z,976.45
2023-02-23T08:20:58.419Z,976.47
2023-02-23T08:21:58.386Z,976.46
2023-02-23T08:22:58.349Z,976.47
2023-02-23T08:23:58.353Z,976.46
2023-02-23T08:24:58.326Z,976.49
2023-02-23T08:25:58.332Z,976.45
2023-02-23T08:26:58.323Z,976.44
2023-02-23T08:27:58.302Z,976.44
2023-02-23T08:28:58.323Z,976.47
2023-02-23T08:29:58.261Z,976.45
2023-02-23T08:30:58.303Z,976.51
2023-02-23T08:31:58.442Z,976.45
2023-02-23T08:32:58.278Z,976.51
2023-02-23T08:33:58.211Z,976.55
2023-02-23T08:34:58.196Z,976.47
2023-02-23T08:35:58.172Z,976.44
2023-02-23T08:36:58.209Z,976.48
2023-02-23T08:37:58.172Z,976.51
2023-02-23T08:38:58.152Z,976.47
2023-02-23T08:39:58.123Z,976.48
2023-02-23T08:40:58.196Z,976.45
2023-02-23T08:41:58.115Z,976.50
2023-02-23T08:42:58.091Z,976.46
2023-02-23T08:43:58.086Z,976.49
2023-02-23T08:44:58.058Z,976.45
2023-02-23T08:45:58.046Z,976.40
2023-02-23T08:46:58.070Z,976.51
2023-02-23T08:47:58.022Z,976.42
2023-02-23T08:48:58.029Z,976.44
2023-02-23T08:49:57.993Z,976.46
2023-02-23T08:50:57.957Z,976.46
2023-02-23T08:51:57.970Z,976.41
2023-02-23T08:52:57.976Z,976.45
2023-02-23T08:53:57.929Z,976.47
2023-02-23T08:54:57.922Z,976.45
2023-02-23T08:55:57.944Z,976.46
2023-02-23T08:56:57.895Z,976.44
2023-02-23T08:57:57.887Z,976.49
2023-02-23T08:58:57.892Z,976.46
2023-02-23T08:59:57.847Z,976.40
2023-02-23T09:00:57.834Z,976.45
2023-02-23T09:01:57.839Z,976.44
2023-02-23T09:02:57.828Z,976.51
2023-02-23T09:03:57.798Z,976.40
2023-02-23T09:04:57.810Z,976.48
2023-02-23T09:05:57.789Z,976.46
2023-02-23T09:06:57.766Z,976.46
2023-02-23T09:07:57.761Z,976.49
2023-02-23T09:08:57.738Z,976.51
2023-02-23T09:09:57.717Z,976.46
2023-02-23T09:10:57.717Z,976.49
2023-02-23T09:11:59.103Z,976.49
2023-02-23T09:12:57.708Z,976.48
2023-02-23T09:13:57.684Z,976.54
2023-02-23T09:14:57.648Z,976.53
2023-02-23T09:15:57.649Z,976.49
2023-02-23T09:16:57.654Z,976.52
2023-02-23T09:17:57.629Z,976.53
2023-02-23T09:18:57.592Z,976.52
2023-02-23T09:19:57.578Z,976.51
2023-02-23T09:20:57.603Z,976.53
2023-02-23T09:21:57.567Z,976.55
2023-02-23T09:22:57.572Z,976.54
2023-02-23T09:23:57.540Z,976.58
2023-02-23T09:24:57.520Z,976.54
2023-02-23T09:25:57.508Z,976.52
2023-02-23T09:26:57.498Z,976.57
2023-02-23T09:27:57.509Z,976.52
2023-02-23T09:28:57.481Z,976.58
2023-02-23T09:29:57.451Z,976.55
2023-02-23T09:30:57.467Z,976.54
2023-02-23T09:31:57.595Z,976.53
2023-02-23T09:32:57.421Z,976.57
2023-02-23T09:33:57.403Z,976.55
2023-02-23T09:34:57.391Z,976.62
2023-02-23T09:35:57.390Z,976.59
2023-02-23T09:36:57.352Z,976.58
2023-02-23T09:37:57.344Z,976.57
2023-02-23T09:38:57.350Z,976.58
2023-02-23T09:39:58.153Z,976.52
2023-02-23T09:40:57.327Z,976.57
2023-02-23T09:41:57.297Z,976.61
2023-02-23T09:42:57.293Z,976.60
2023-02-23T09:43:57.293Z,976.62
2023-02-23T09:44:57.251Z,976.59
2023-02-23T09:45:57.289Z,976.57
2023-02-23T09:46:57.221Z,976.59
2023-02-23T10:03:17.573Z,976.74
2023-02-23T10:04:17.562Z,976.67
2023-02-23T10:05:17.544Z,976.72
2023-02-23T10:06:17.524Z,976.75
2023-02-23T10:07:17.507Z,976.67
2023-02-23T10:08:17.516Z,976.71
2023-02-23T10:09:17.508Z,976.67
2023-02-23T10:10:17.506Z,976.61
2023-02-23T10:11:17.742Z,976.66
2023-02-23T10:12:17.444Z,976.72
2023-02-23T10:13:17.480Z,976.66
2023-02-23T10:14:17.446Z,976.65
2023-02-23T10:15:24.953Z,976.62
2023-02-23T10:16:17.431Z,976.66
2023-02-23T10:17:17.384Z,976.70
2023-02-23T10:18:17.378Z,976.67
2023-02-23T10:19:17.366Z,976.60
2023-02-23T10:20:17.382Z,976.61
2023-02-23T10:21:17.381Z,976.60
2023-02-23T10:22:17.327Z,976.64
2023-02-23T10:23:17.331Z,976.59
2023-02-23T10:24:17.299Z,976.62
2023-02-23T10:25:17.306Z,976.64
2023-02-23T10:26:17.271Z,976.59
2023-02-23T10:27:17.263Z,976.55
2023-02-23T10:28:17.249Z,976.63
2023-02-23T10:29:17.258Z,976.64
2023-02-23T10:30:17.235Z,976.58
2023-02-23T10:31:17.442Z,976.58
2023-02-23T10:32:17.311Z,976.59
2023-02-23T10:33:17.164Z,976.59
2023-02-23T10:34:17.189Z,976.56
2023-02-23T10:35:17.159Z,976.65
2023-02-23T10:36:17.159Z,976.64
2023-02-23T10:37:17.116Z,976.63
2023-02-23T10:38:17.097Z,976.67
2023-02-23T10:39:17.106Z,976.64
2023-02-23T10:40:17.097Z,976.69
2023-02-23T10:41:17.407Z,976.67
2023-02-23T10:42:17.059Z,976.65
2023-02-23T10:43:17.066Z,976.68
2023-02-23T10:44:17.446Z,976.64
2023-02-23T10:45:17.037Z,976.66
2023-02-23T10:46:17.069Z,976.64
2023-02-23T10:47:17.058Z,976.74
2023-02-23T10:48:17.073Z,976.70
2023-02-23T10:49:16.987Z,976.67
2023-02-23T10:50:16.995Z,976.72
2023-02-23T10:51:17.065Z,976.70
2023-02-23T10:52:16.926Z,976.74
2023-02-23T10:53:16.932Z,976.76
2023-02-23T10:54:16.902Z,976.69
2023-02-23T10:55:16.910Z,976.64
2023-02-23T10:56:16.896Z,976.69
2023-02-23T10:57:16.870Z,976.67
2023-02-23T10:58:17.176Z,976.68
2023-02-23T10:59:17.448Z,976.70
2023-02-23T11:00:17.135Z,976.73
2023-02-23T11:01:16.993Z,976.74
2023-02-23T11:02:16.867Z,976.70
2023-02-23T11:03:16.891Z,976.71
2023-02-23T11:04:16.826Z,976.69
2023-02-23T11:05:16.768Z,976.70
2023-02-23T11:06:16.782Z,976.62
2023-02-23T11:07:16.742Z,976.66
2023-02-23T11:08:17.458Z,976.68
2023-02-23T11:09:17.256Z,976.64
2023-02-23T11:10:17.083Z,976.68
2023-02-23T11:11:17.143Z,976.68
2023-02-23T11:12:16.702Z,976.68
2023-02-23T11:13:16.674Z,976.64
2023-02-23T11:14:16.651Z,976.65
2023-02-23T11:15:16.630Z,976.68
2023-02-23T11:16:16.687Z,976.64
2023-02-23T11:17:16.590Z,976.63
2023-02-23T11:18:16.601Z,976.64
2023-02-23T11:19:16.559Z,976.60
2023-02-23T11:20:16.599Z,976.63
2023-02-23T11:21:16.541Z,976.63
2023-02-23T11:22:16.520Z,976.60
2023-02-23T11:23:16.532Z,976.59
2023-02-23T11:24:16.498Z,976.64
2023-02-23T11:25:16.498Z,976.57
2023-02-23T11:26:16.487Z,976.56
2023-02-23T11:27:16.470Z,976.56
2023-02-23T11:28:16.469Z,976.53
2023-02-23T11:29:16.479Z,976.51
2023-02-23T11:30:16.440Z,976.49
2023-02-23T11:31:16.452Z,976.52
2023-02-23T11:32:16.539Z,976.56
2023-02-23T11:33:16.390Z,976.54
2023-02-23T11:34:16.382Z,976.54
2023-02-23T11:35:16.361Z,976.50
2023-02-23T11:36:16.340Z,976.49
2023-02-23T11:37:16.352Z,976.43
2023-02-23T11:38:16.334Z,976.52
2023-02-23T11:39:16.326Z,976.50
2023-02-23T11:40:16.318Z,976.39
2023-02-23T11:41:16.444Z,976.51
2023-02-23T11:42:16.286Z,976.41
2023-02-23T11:43:16.251Z,976.39
2023-02-23T11:44:16.240Z,976.39
2023-02-23T11:45:16.252Z,976.39
2023-02-23T11:46:16.338Z,976.39
2023-02-23T11:47:16.199Z,976.36
2023-02-23T11:48:16.182Z,976.40
2023-02-23T11:49:16.192Z,976.37
2023-02-23T11:50:16.204Z,976.29
2023-02-23T11:51:16.145Z,976.31
2023-02-23T11:52:16.161Z,976.32
2023-02-23T11:53:16.133Z,976.33
2023-02-23T11:54:16.116Z,976.33
2023-02-23T11:55:16.136Z,976.34
2023-02-23T11:56:16.103Z,976.33
2023-02-23T11:57:16.106Z,976.37
2023-02-23T11:58:16.083Z,976.31
2023-02-23T11:59:16.058Z,976.31
2023-02-23T12:00:16.141Z,976.23
2023-02-23T12:01:16.036Z,976.31
2023-02-23T12:02:16.037Z,976.22
2023-02-23T12:03:15.992Z,976.29
2023-02-23T12:04:15.993Z,976.18
2023-02-23T12:05:16.054Z,976.22
2023-02-23T12:06:16.021Z,976.21
2023-02-23T12:07:15.953Z,976.21
2023-02-23T12:08:15.953Z,976.23
2023-02-23T12:09:15.929Z,976.16
2023-02-23T12:10:15.960Z,976.22
2023-02-23T12:11:15.907Z,976.21
2023-02-23T12:12:15.897Z,976.21
2023-02-23T12:13:15.869Z,976.24
2023-02-23T12:14:15.875Z,976.23
2023-02-23T12:15:15.850Z,976.24
2023-02-23T12:16:15.875Z,976.23
2023-02-23T12:17:15.807Z,976.24
2023-02-23T12:18:15.802Z,976.25
2023-02-23T12:19:15.790Z,976.21
2023-02-23T12:20:15.783Z,976.26
2023-02-23T12:21:15.771Z,976.25
2023-02-23T12:22:15.741Z,976.20
2023-02-23T12:23:15.782Z,976.23
2023-02-23T12:24:15.723Z,976.18
2023-02-23T12:25:15.720Z,976.23
2023-02-23T12:26:15.703Z,976.26
2023-02-23T12:27:15.693Z,976.21
2023-02-23T12:28:19.079Z,976.21
2023-02-23T12:29:15.643Z,976.13
2023-02-23T12:30:15.655Z,976.22
2023-02-23T12:31:15.688Z,976.21
2023-02-23T12:32:15.750Z,976.14
2023-02-23T12:33:15.615Z,976.20
2023-02-23T12:34:15.591Z,976.17
2023-02-23T12:35:15.588Z,976.18
2023-02-23T12:36:15.571Z,976.15
2023-02-23T12:37:15.567Z,976.11
2023-02-23T12:38:15.530Z,976.13
2023-02-23T12:39:15.524Z,976.15
2023-02-23T12:40:15.525Z,976.14
2023-02-23T12:41:15.528Z,976.11
2023-02-23T12:42:15.500Z,976.08
2023-02-23T12:43:15.482Z,976.11
2023-02-23T12:44:15.469Z,976.13
2023-02-23T12:45:15.470Z,976.14
2023-02-23T12:46:15.466Z,976.09
2023-02-23T12:47:15.412Z,976.07
2023-02-23T12:48:15.410Z,976.00
2023-02-23T12:49:15.393Z,976.07
2023-02-23T12:50:15.394Z,976.05
2023-02-23T12:51:16.022Z,976.08
2023-02-23T12:52:15.351Z,976.07
2023-02-23T12:53:15.334Z,976.02
2023-02-23T12:54:15.323Z,975.96
2023-02-23T12:55:15.321Z,975.97
2023-02-23T12:56:15.312Z,975.97